sensor_id;sensor_type;location;lat;lon;timestamp;P1;durP1;ratioP1;P2;durP2;ratioP2
23258;SDS011;11798;51.528;7.240;2022-11-20T00:01:44;34.03;;;19.63;;
23258;SDS011;11798;51.528;7.240;2022-11-20T00:04:10;31.97;;;20.37;;
23258;SDS011;11798;51.528;7.240;2022-11-20T00:06:37;32.03;;;17.93;;
23258;SDS011;11798;51.528;7.240;2022-11-20T00:09:02;28.50;;;18.17;;
23258;SDS011;11798;51.528;7.240;2022-11-20T00:11:30;34.40;;;19.73;;
23258;SDS011;11798;51.528;7.240;2022-11-20T00:13:57;29.30;;;19.23;;
23258;SDS011;11798;51.528;7.240;2022-11-20T00:16:25;31.60;;;19.80;;
23258;SDS011;11798;51.528;7.240;2022-11-20T00:18:51;32.90;;;19.90;;
23258;SDS011;11798;51.528;7.240;2022-11-20T00:21:24;34.03;;;19.70;;
23258;SDS011;11798;51.528;7.240;2022-11-20T00:23:52;33.37;;;20.37;;
23258;SDS011;11798;51.528;7.240;2022-11-20T00:26:20;33.90;;;21.10;;
23258;SDS011;11798;51.528;7.240;2022-11-20T00:28:56;32.47;;;21.47;;
23258;SDS011;11798;51.528;7.240;2022-11-20T00:31:23;33.77;;;20.67;;
23258;SDS011;11798;51.528;7.240;2022-11-20T00:33:49;33.20;;;20.23;;
23258;SDS011;11798;51.528;7.240;2022-11-20T00:36:16;32.70;;;21.13;;
23258;SDS011;11798;51.528;7.240;2022-11-20T00:38:46;31.30;;;20.03;;
23258;SDS011;11798;51.528;7.240;2022-11-20T00:41:16;34.00;;;20.10;;
23258;SDS011;11798;51.528;7.240;2022-11-20T00:43:41;31.73;;;19.93;;
23258;SDS011;11798;51.528;7.240;2022-11-20T00:46:17;37.20;;;21.67;;
23258;SDS011;11798;51.528;7.240;2022-11-20T00:48:46;34.63;;;19.83;;
23258;SDS011;11798;51.528;7.240;2022-11-20T00:51:19;33.83;;;20.17;;
23258;SDS011;11798;51.528;7.240;2022-11-20T00:53:46;32.77;;;19.67;;
23258;SDS011;11798;51.528;7.240;2022-11-20T00:56:13;31.57;;;20.60;;
23258;SDS011;11798;51.528;7.240;2022-11-20T00:58:40;32.40;;;20.33;;
23258;SDS011;11798;51.528;7.240;2022-11-20T01:01:09;30.03;;;19.37;;
23258;SDS011;11798;51.528;7.240;2022-11-20T01:03:35;31.97;;;19.80;;
23258;SDS011;11798;51.528;7.240;2022-11-20T01:06:07;29.63;;;19.00;;
23258;SDS011;11798;51.528;7.240;2022-11-20T01:08:38;31.23;;;19.30;;
23258;SDS011;11798;51.528;7.240;2022-11-20T01:11:05;32.97;;;20.33;;
23258;SDS011;11798;51.528;7.240;2022-11-20T01:13:32;29.93;;;20.17;;
23258;SDS011;11798;51.528;7.240;2022-11-20T01:16:03;31.87;;;20.50;;
23258;SDS011;11798;51.528;7.240;2022-11-20T01:18:41;31.30;;;19.13;;
23258;SDS011;11798;51.528;7.240;2022-11-20T01:21:10;30.50;;;19.43;;
23258;SDS011;11798;51.528;7.240;2022-11-20T01:23:39;32.60;;;19.27;;
23258;SDS011;11798;51.528;7.240;2022-11-20T01:26:07;38.47;;;21.20;;
23258;SDS011;11798;51.528;7.240;2022-11-20T01:28:35;34.73;;;20.73;;
23258;SDS011;11798;51.528;7.240;2022-11-20T01:31:01;32.97;;;20.07;;
23258;SDS011;11798;51.528;7.240;2022-11-20T01:33:35;33.73;;;19.93;;
23258;SDS011;11798;51.528;7.240;2022-11-20T01:36:05;32.93;;;19.40;;
23258;SDS011;11798;51.528;7.240;2022-11-20T01:38:31;31.13;;;19.00;;
23258;SDS011;11798;51.528;7.240;2022-11-20T01:40:57;30.37;;;19.53;;
23258;SDS011;11798;51.528;7.240;2022-11-20T01:43:22;29.93;;;19.07;;
23258;SDS011;11798;51.528;7.240;2022-11-20T01:48:25;36.50;;;21.33;;
23258;SDS011;11798;51.528;7.240;2022-11-20T01:50:55;31.27;;;20.13;;
23258;SDS011;11798;51.528;7.240;2022-11-20T01:53:24;32.23;;;21.07;;
23258;SDS011;11798;51.528;7.240;2022-11-20T01:55:54;35.23;;;20.63;;
23258;SDS011;11798;51.528;7.240;2022-11-20T01:58:22;32.83;;;21.43;;
23258;SDS011;11798;51.528;7.240;2022-11-20T02:00:51;36.70;;;20.47;;
23258;SDS011;11798;51.528;7.240;2022-11-20T02:03:17;34.17;;;20.53;;
23258;SDS011;11798;51.528;7.240;2022-11-20T02:08:47;33.53;;;19.60;;
23258;SDS011;11798;51.528;7.240;2022-11-20T02:11:13;35.70;;;20.83;;
23258;SDS011;11798;51.528;7.240;2022-11-20T02:13:38;34.17;;;19.90;;
23258;SDS011;11798;51.528;7.240;2022-11-20T02:16:30;32.23;;;20.40;;
23258;SDS011;11798;51.528;7.240;2022-11-20T02:18:56;35.63;;;20.63;;
23258;SDS011;11798;51.528;7.240;2022-11-20T02:24:00;31.00;;;19.20;;
23258;SDS011;11798;51.528;7.240;2022-11-20T02:26:43;32.87;;;20.70;;
23258;SDS011;11798;51.528;7.240;2022-11-20T02:32:34;31.17;;;19.13;;
23258;SDS011;11798;51.528;7.240;2022-11-20T02:37:34;29.97;;;19.47;;
23258;SDS011;11798;51.528;7.240;2022-11-20T02:40:03;37.00;;;20.47;;
23258;SDS011;11798;51.528;7.240;2022-11-20T02:42:29;35.70;;;21.40;;
23258;SDS011;11798;51.528;7.240;2022-11-20T02:44:55;35.13;;;21.10;;
23258;SDS011;11798;51.528;7.240;2022-11-20T02:47:21;32.87;;;20.73;;
23258;SDS011;11798;51.528;7.240;2022-11-20T02:49:46;37.93;;;21.77;;
23258;SDS011;11798;51.528;7.240;2022-11-20T02:52:12;35.07;;;21.13;;
23258;SDS011;11798;51.528;7.240;2022-11-20T02:54:37;34.40;;;19.60;;
23258;SDS011;11798;51.528;7.240;2022-11-20T02:57:03;31.73;;;20.70;;
23258;SDS011;11798;51.528;7.240;2022-11-20T02:59:28;32.73;;;21.40;;
23258;SDS011;11798;51.528;7.240;2022-11-20T03:01:54;31.43;;;20.27;;
23258;SDS011;11798;51.528;7.240;2022-11-20T03:04:19;31.00;;;20.43;;
23258;SDS011;11798;51.528;7.240;2022-11-20T03:06:45;30.70;;;20.57;;
23258;SDS011;11798;51.528;7.240;2022-11-20T03:09:11;32.20;;;20.47;;
23258;SDS011;11798;51.528;7.240;2022-11-20T03:11:37;35.07;;;21.27;;
23258;SDS011;11798;51.528;7.240;2022-11-20T03:14:03;30.53;;;20.00;;
23258;SDS011;11798;51.528;7.240;2022-11-20T03:16:30;33.87;;;19.40;;
23258;SDS011;11798;51.528;7.240;2022-11-20T03:18:56;32.07;;;19.17;;
23258;SDS011;11798;51.528;7.240;2022-11-20T03:21:22;36.33;;;20.60;;
23258;SDS011;11798;51.528;7.240;2022-11-20T03:23:47;33.97;;;20.53;;
23258;SDS011;11798;51.528;7.240;2022-11-20T03:26:14;30.63;;;20.27;;
23258;SDS011;11798;51.528;7.240;2022-11-20T03:28:45;29.43;;;18.87;;
23258;SDS011;11798;51.528;7.240;2022-11-20T03:31:13;36.70;;;20.17;;
23258;SDS011;11798;51.528;7.240;2022-11-20T03:33:40;33.63;;;19.33;;
23258;SDS011;11798;51.528;7.240;2022-11-20T03:36:14;31.67;;;19.93;;
23258;SDS011;11798;51.528;7.240;2022-11-20T03:38:41;32.83;;;20.30;;
23258;SDS011;11798;51.528;7.240;2022-11-20T03:41:08;30.30;;;19.37;;
23258;SDS011;11798;51.528;7.240;2022-11-20T03:43:35;34.30;;;20.50;;
23258;SDS011;11798;51.528;7.240;2022-11-20T03:46:01;34.10;;;20.00;;
23258;SDS011;11798;51.528;7.240;2022-11-20T03:48:27;35.07;;;20.93;;
23258;SDS011;11798;51.528;7.240;2022-11-20T03:51:05;30.50;;;19.80;;
23258;SDS011;11798;51.528;7.240;2022-11-20T03:53:52;33.33;;;19.43;;
23258;SDS011;11798;51.528;7.240;2022-11-20T03:56:20;33.90;;;20.40;;
23258;SDS011;11798;51.528;7.240;2022-11-20T03:58:48;31.73;;;19.73;;
23258;SDS011;11798;51.528;7.240;2022-11-20T04:01:15;35.33;;;20.60;;
23258;SDS011;11798;51.528;7.240;2022-11-20T04:03:46;33.23;;;18.87;;
23258;SDS011;11798;51.528;7.240;2022-11-20T04:06:20;30.33;;;18.60;;
23258;SDS011;11798;51.528;7.240;2022-11-20T04:08:47;29.30;;;19.73;;
23258;SDS011;11798;51.528;7.240;2022-11-20T04:11:14;32.13;;;18.67;;
23258;SDS011;11798;51.528;7.240;2022-11-20T04:13:42;35.70;;;19.60;;
23258;SDS011;11798;51.528;7.240;2022-11-20T04:16:10;33.57;;;19.77;;
23258;SDS011;11798;51.528;7.240;2022-11-20T04:18:36;29.43;;;19.43;;
23258;SDS011;11798;51.528;7.240;2022-11-20T04:21:02;31.90;;;18.20;;
23258;SDS011;11798;51.528;7.240;2022-11-20T04:23:28;30.60;;;19.10;;
23258;SDS011;11798;51.528;7.240;2022-11-20T04:25:54;33.80;;;19.93;;
23258;SDS011;11798;51.528;7.240;2022-11-20T04:28:20;31.07;;;19.37;;
23258;SDS011;11798;51.528;7.240;2022-11-20T04:30:46;32.63;;;19.30;;
23258;SDS011;11798;51.528;7.240;2022-11-20T04:33:11;34.10;;;19.20;;
23258;SDS011;11798;51.528;7.240;2022-11-20T04:35:37;29.67;;;18.43;;
23258;SDS011;11798;51.528;7.240;2022-11-20T04:38:03;31.17;;;19.20;;
23258;SDS011;11798;51.528;7.240;2022-11-20T04:40:29;34.50;;;19.03;;
23258;SDS011;11798;51.528;7.240;2022-11-20T04:42:55;32.90;;;19.93;;
23258;SDS011;11798;51.528;7.240;2022-11-20T04:45:22;30.80;;;19.73;;
23258;SDS011;11798;51.528;7.240;2022-11-20T04:47:48;31.30;;;19.40;;
23258;SDS011;11798;51.528;7.240;2022-11-20T04:50:13;30.33;;;19.00;;
23258;SDS011;11798;51.528;7.240;2022-11-20T04:52:39;34.83;;;19.80;;
23258;SDS011;11798;51.528;7.240;2022-11-20T04:55:05;31.07;;;19.67;;
23258;SDS011;11798;51.528;7.240;2022-11-20T04:57:31;32.37;;;20.33;;
23258;SDS011;11798;51.528;7.240;2022-11-20T04:59:56;30.60;;;18.90;;
23258;SDS011;11798;51.528;7.240;2022-11-20T05:02:22;32.97;;;19.17;;
23258;SDS011;11798;51.528;7.240;2022-11-20T05:04:48;34.53;;;18.90;;
23258;SDS011;11798;51.528;7.240;2022-11-20T05:07:13;34.23;;;20.57;;
23258;SDS011;11798;51.528;7.240;2022-11-20T05:09:39;31.93;;;20.23;;
23258;SDS011;11798;51.528;7.240;2022-11-20T05:12:06;32.73;;;20.53;;
23258;SDS011;11798;51.528;7.240;2022-11-20T05:14:33;30.37;;;19.53;;
23258;SDS011;11798;51.528;7.240;2022-11-20T05:16:58;27.67;;;18.70;;
23258;SDS011;11798;51.528;7.240;2022-11-20T05:19:24;32.20;;;20.70;;
23258;SDS011;11798;51.528;7.240;2022-11-20T05:21:49;31.57;;;19.60;;
23258;SDS011;11798;51.528;7.240;2022-11-20T05:24:15;30.27;;;19.43;;
23258;SDS011;11798;51.528;7.240;2022-11-20T05:26:41;30.23;;;18.83;;
23258;SDS011;11798;51.528;7.240;2022-11-20T05:29:06;29.63;;;19.37;;
23258;SDS011;11798;51.528;7.240;2022-11-20T05:31:34;30.07;;;19.53;;
23258;SDS011;11798;51.528;7.240;2022-11-20T05:34:01;29.17;;;18.03;;
23258;SDS011;11798;51.528;7.240;2022-11-20T05:36:26;34.63;;;18.93;;
23258;SDS011;11798;51.528;7.240;2022-11-20T05:38:52;33.67;;;19.30;;
23258;SDS011;11798;51.528;7.240;2022-11-20T05:41:18;30.37;;;19.27;;
23258;SDS011;11798;51.528;7.240;2022-11-20T05:43:45;29.90;;;18.43;;
23258;SDS011;11798;51.528;7.240;2022-11-20T05:46:12;29.57;;;18.47;;
23258;SDS011;11798;51.528;7.240;2022-11-20T05:48:40;29.93;;;18.90;;
23258;SDS011;11798;51.528;7.240;2022-11-20T05:51:08;29.83;;;18.27;;
23258;SDS011;11798;51.528;7.240;2022-11-20T05:53:35;32.13;;;18.23;;
23258;SDS011;11798;51.528;7.240;2022-11-20T05:56:09;28.80;;;18.13;;
23258;SDS011;11798;51.528;7.240;2022-11-20T05:58:36;29.30;;;18.57;;
23258;SDS011;11798;51.528;7.240;2022-11-20T06:01:06;28.80;;;18.83;;
23258;SDS011;11798;51.528;7.240;2022-11-20T06:03:37;32.37;;;19.70;;
23258;SDS011;11798;51.528;7.240;2022-11-20T06:06:03;31.23;;;18.77;;
23258;SDS011;11798;51.528;7.240;2022-11-20T06:08:30;31.63;;;19.53;;
23258;SDS011;11798;51.528;7.240;2022-11-20T06:10:56;30.33;;;18.00;;
23258;SDS011;11798;51.528;7.240;2022-11-20T06:13:22;28.80;;;17.83;;
23258;SDS011;11798;51.528;7.240;2022-11-20T06:15:49;29.27;;;18.70;;
23258;SDS011;11798;51.528;7.240;2022-11-20T06:18:15;30.63;;;18.90;;
23258;SDS011;11798;51.528;7.240;2022-11-20T06:20:41;26.70;;;17.93;;
23258;SDS011;11798;51.528;7.240;2022-11-20T06:23:07;28.00;;;17.13;;
23258;SDS011;11798;51.528;7.240;2022-11-20T06:25:32;29.80;;;18.13;;
23258;SDS011;11798;51.528;7.240;2022-11-20T06:27:58;30.17;;;18.37;;
23258;SDS011;11798;51.528;7.240;2022-11-20T06:30:23;30.87;;;18.37;;
23258;SDS011;11798;51.528;7.240;2022-11-20T06:32:49;30.00;;;18.43;;
23258;SDS011;11798;51.528;7.240;2022-11-20T06:35:14;31.20;;;18.70;;
23258;SDS011;11798;51.528;7.240;2022-11-20T06:37:40;30.70;;;18.77;;
23258;SDS011;11798;51.528;7.240;2022-11-20T06:40:06;30.20;;;18.90;;
23258;SDS011;11798;51.528;7.240;2022-11-20T06:42:32;27.77;;;17.93;;
23258;SDS011;11798;51.528;7.240;2022-11-20T06:44:57;29.83;;;18.47;;
23258;SDS011;11798;51.528;7.240;2022-11-20T06:47:23;31.07;;;18.83;;
23258;SDS011;11798;51.528;7.240;2022-11-20T06:49:49;33.17;;;19.87;;
23258;SDS011;11798;51.528;7.240;2022-11-20T06:52:14;34.73;;;20.10;;
23258;SDS011;11798;51.528;7.240;2022-11-20T06:54:40;30.43;;;18.17;;
23258;SDS011;11798;51.528;7.240;2022-11-20T06:57:05;30.03;;;18.50;;
23258;SDS011;11798;51.528;7.240;2022-11-20T06:59:31;28.83;;;18.57;;
23258;SDS011;11798;51.528;7.240;2022-11-20T07:01:56;32.00;;;18.87;;
23258;SDS011;11798;51.528;7.240;2022-11-20T07:04:22;31.00;;;18.33;;
23258;SDS011;11798;51.528;7.240;2022-11-20T07:06:47;29.20;;;17.93;;
23258;SDS011;11798;51.528;7.240;2022-11-20T07:09:13;31.20;;;17.70;;
23258;SDS011;11798;51.528;7.240;2022-11-20T07:11:39;30.33;;;16.80;;
23258;SDS011;11798;51.528;7.240;2022-11-20T07:14:04;30.40;;;18.23;;
23258;SDS011;11798;51.528;7.240;2022-11-20T07:16:30;30.73;;;18.20;;
23258;SDS011;11798;51.528;7.240;2022-11-20T07:18:56;31.47;;;18.70;;
23258;SDS011;11798;51.528;7.240;2022-11-20T07:21:21;31.70;;;17.53;;
23258;SDS011;11798;51.528;7.240;2022-11-20T07:23:47;31.67;;;17.73;;
23258;SDS011;11798;51.528;7.240;2022-11-20T07:26:12;31.87;;;19.53;;
23258;SDS011;11798;51.528;7.240;2022-11-20T07:28:38;29.00;;;17.03;;
23258;SDS011;11798;51.528;7.240;2022-11-20T07:31:04;32.97;;;19.40;;
23258;SDS011;11798;51.528;7.240;2022-11-20T07:33:31;31.33;;;17.33;;
23258;SDS011;11798;51.528;7.240;2022-11-20T07:36:00;28.10;;;16.93;;
23258;SDS011;11798;51.528;7.240;2022-11-20T07:38:26;32.77;;;18.70;;
23258;SDS011;11798;51.528;7.240;2022-11-20T07:40:55;34.67;;;19.30;;
23258;SDS011;11798;51.528;7.240;2022-11-20T07:43:22;35.27;;;20.10;;
23258;SDS011;11798;51.528;7.240;2022-11-20T07:45:48;36.43;;;20.43;;
23258;SDS011;11798;51.528;7.240;2022-11-20T07:48:15;33.50;;;19.33;;
23258;SDS011;11798;51.528;7.240;2022-11-20T07:50:40;34.93;;;20.00;;
23258;SDS011;11798;51.528;7.240;2022-11-20T07:53:06;33.37;;;19.40;;
23258;SDS011;11798;51.528;7.240;2022-11-20T07:55:32;32.13;;;18.83;;
23258;SDS011;11798;51.528;7.240;2022-11-20T07:57:58;28.83;;;18.20;;
23258;SDS011;11798;51.528;7.240;2022-11-20T08:00:24;34.80;;;19.00;;
23258;SDS011;11798;51.528;7.240;2022-11-20T08:02:51;32.57;;;18.63;;
23258;SDS011;11798;51.528;7.240;2022-11-20T08:05:16;34.00;;;19.60;;
23258;SDS011;11798;51.528;7.240;2022-11-20T08:07:43;35.83;;;21.00;;
23258;SDS011;11798;51.528;7.240;2022-11-20T08:10:10;34.57;;;21.63;;
23258;SDS011;11798;51.528;7.240;2022-11-20T08:12:47;34.40;;;20.10;;
23258;SDS011;11798;51.528;7.240;2022-11-20T08:15:33;38.30;;;22.40;;
23258;SDS011;11798;51.528;7.240;2022-11-20T08:18:00;35.17;;;20.93;;
23258;SDS011;11798;51.528;7.240;2022-11-20T08:20:26;34.93;;;21.47;;
23258;SDS011;11798;51.528;7.240;2022-11-20T08:22:56;31.13;;;20.70;;
23258;SDS011;11798;51.528;7.240;2022-11-20T08:25:23;37.67;;;23.27;;
23258;SDS011;11798;51.528;7.240;2022-11-20T08:27:49;35.47;;;20.97;;
23258;SDS011;11798;51.528;7.240;2022-11-20T08:30:14;35.30;;;21.93;;
23258;SDS011;11798;51.528;7.240;2022-11-20T08:32:40;34.90;;;21.20;;
23258;SDS011;11798;51.528;7.240;2022-11-20T08:35:06;37.63;;;21.93;;
23258;SDS011;11798;51.528;7.240;2022-11-20T08:37:31;34.93;;;23.27;;
23258;SDS011;11798;51.528;7.240;2022-11-20T08:39:57;38.90;;;23.20;;
23258;SDS011;11798;51.528;7.240;2022-11-20T08:42:23;38.60;;;23.17;;
23258;SDS011;11798;51.528;7.240;2022-11-20T08:44:48;39.57;;;23.33;;
23258;SDS011;11798;51.528;7.240;2022-11-20T08:47:14;39.57;;;23.90;;
23258;SDS011;11798;51.528;7.240;2022-11-20T08:49:39;41.47;;;23.93;;
23258;SDS011;11798;51.528;7.240;2022-11-20T08:52:05;39.90;;;24.33;;
23258;SDS011;11798;51.528;7.240;2022-11-20T08:54:30;40.63;;;25.53;;
23258;SDS011;11798;51.528;7.240;2022-11-20T08:56:56;44.37;;;26.33;;
23258;SDS011;11798;51.528;7.240;2022-11-20T08:59:22;49.23;;;29.60;;
23258;SDS011;11798;51.528;7.240;2022-11-20T09:01:47;53.70;;;30.67;;
23258;SDS011;11798;51.528;7.240;2022-11-20T09:04:13;48.23;;;29.83;;
23258;SDS011;11798;51.528;7.240;2022-11-20T09:06:39;51.63;;;31.13;;
23258;SDS011;11798;51.528;7.240;2022-11-20T09:09:05;56.77;;;32.83;;
23258;SDS011;11798;51.528;7.240;2022-11-20T09:11:31;88.83;;;45.83;;
23258;SDS011;11798;51.528;7.240;2022-11-20T09:13:56;96.03;;;51.80;;
23258;SDS011;11798;51.528;7.240;2022-11-20T09:16:22;88.47;;;46.03;;
23258;SDS011;11798;51.528;7.240;2022-11-20T09:18:49;94.23;;;50.40;;
23258;SDS011;11798;51.528;7.240;2022-11-20T09:21:16;118.20;;;61.73;;
23258;SDS011;11798;51.528;7.240;2022-11-20T09:23:41;194.60;;;95.30;;
23258;SDS011;11798;51.528;7.240;2022-11-20T09:26:11;257.03;;;127.73;;
23258;SDS011;11798;51.528;7.240;2022-11-20T09:28:38;267.87;;;130.07;;
23258;SDS011;11798;51.528;7.240;2022-11-20T09:31:04;172.87;;;85.33;;
23258;SDS011;11798;51.528;7.240;2022-11-20T09:33:34;147.53;;;73.70;;
23258;SDS011;11798;51.528;7.240;2022-11-20T09:36:00;96.70;;;52.30;;
23258;SDS011;11798;51.528;7.240;2022-11-20T09:38:25;70.37;;;38.80;;
23258;SDS011;11798;51.528;7.240;2022-11-20T09:40:55;67.20;;;37.00;;
23258;SDS011;11798;51.528;7.240;2022-11-20T09:51:46;61.50;;;32.70;;
23258;SDS011;11798;51.528;7.240;2022-11-20T09:54:44;61.60;;;32.63;;
23258;SDS011;11798;51.528;7.240;2022-11-20T09:57:17;61.07;;;34.53;;
23258;SDS011;11798;51.528;7.240;2022-11-20T09:59:48;60.43;;;31.17;;
23258;SDS011;11798;51.528;7.240;2022-11-20T10:10:46;49.30;;;26.67;;
23258;SDS011;11798;51.528;7.240;2022-11-20T10:13:20;41.20;;;22.20;;
23258;SDS011;11798;51.528;7.240;2022-11-20T10:24:03;29.33;;;17.73;;
23258;SDS011;11798;51.528;7.240;2022-11-20T10:30:11;23.70;;;15.57;;
23258;SDS011;11798;51.528;7.240;2022-11-20T10:32:40;28.13;;;16.90;;
23258;SDS011;11798;51.528;7.240;2022-11-20T10:38:02;24.63;;;14.57;;
23258;SDS011;11798;51.528;7.240;2022-11-20T10:40:44;23.53;;;14.67;;
23258;SDS011;11798;51.528;7.240;2022-11-20T10:43:17;26.67;;;15.30;;
23258;SDS011;11798;51.528;7.240;2022-11-20T10:46:05;26.70;;;15.07;;
23258;SDS011;11798;51.528;7.240;2022-11-20T10:48:38;25.70;;;15.47;;
23258;SDS011;11798;51.528;7.240;2022-11-20T10:54:07;26.30;;;16.50;;
23258;SDS011;11798;51.528;7.240;2022-11-20T10:56:56;26.80;;;16.17;;
23258;SDS011;11798;51.528;7.240;2022-11-20T11:02:17;25.57;;;15.47;;
23258;SDS011;11798;51.528;7.240;2022-11-20T11:04:56;24.10;;;15.50;;
23258;SDS011;11798;51.528;7.240;2022-11-20T11:07:24;22.83;;;14.83;;
23258;SDS011;11798;51.528;7.240;2022-11-20T11:09:58;25.77;;;16.73;;
23258;SDS011;11798;51.528;7.240;2022-11-20T11:12:25;22.93;;;14.53;;
23258;SDS011;11798;51.528;7.240;2022-11-20T11:14:53;25.00;;;15.43;;
23258;SDS011;11798;51.528;7.240;2022-11-20T11:17:28;23.37;;;15.93;;
23258;SDS011;11798;51.528;7.240;2022-11-20T11:22:30;25.53;;;16.70;;
23258;SDS011;11798;51.528;7.240;2022-11-20T11:24:57;26.10;;;15.23;;
23258;SDS011;11798;51.528;7.240;2022-11-20T11:27:23;23.00;;;15.17;;
23258;SDS011;11798;51.528;7.240;2022-11-20T11:29:49;22.47;;;13.43;;
23258;SDS011;11798;51.528;7.240;2022-11-20T11:32:18;21.60;;;13.73;;
23258;SDS011;11798;51.528;7.240;2022-11-20T11:35:04;20.27;;;12.77;;
23258;SDS011;11798;51.528;7.240;2022-11-20T11:37:35;19.57;;;12.37;;
23258;SDS011;11798;51.528;7.240;2022-11-20T11:40:02;18.97;;;13.07;;
23258;SDS011;11798;51.528;7.240;2022-11-20T11:42:31;19.93;;;13.47;;
23258;SDS011;11798;51.528;7.240;2022-11-20T11:44:58;20.87;;;13.67;;
23258;SDS011;11798;51.528;7.240;2022-11-20T11:52:40;22.73;;;13.33;;
23258;SDS011;11798;51.528;7.240;2022-11-20T11:56:05;20.37;;;12.97;;
23258;SDS011;11798;51.528;7.240;2022-11-20T12:01:00;18.50;;;12.90;;
23258;SDS011;11798;51.528;7.240;2022-11-20T12:03:53;24.90;;;14.63;;
23258;SDS011;11798;51.528;7.240;2022-11-20T12:06:27;22.90;;;13.70;;
23258;SDS011;11798;51.528;7.240;2022-11-20T12:09:04;19.50;;;13.00;;
23258;SDS011;11798;51.528;7.240;2022-11-20T12:11:46;21.77;;;14.37;;
23258;SDS011;11798;51.528;7.240;2022-11-20T12:14:30;20.43;;;13.83;;
23258;SDS011;11798;51.528;7.240;2022-11-20T12:17:00;19.70;;;13.80;;
23258;SDS011;11798;51.528;7.240;2022-11-20T12:19:26;25.03;;;15.10;;
23258;SDS011;11798;51.528;7.240;2022-11-20T12:35:25;24.13;;;15.80;;
23258;SDS011;11798;51.528;7.240;2022-11-20T12:40:54;22.60;;;15.37;;
23258;SDS011;11798;51.528;7.240;2022-11-20T12:43:28;22.77;;;14.77;;
23258;SDS011;11798;51.528;7.240;2022-11-20T12:46:25;23.27;;;14.87;;
23258;SDS011;11798;51.528;7.240;2022-11-20T12:52:13;25.57;;;15.63;;
23258;SDS011;11798;51.528;7.240;2022-11-20T12:57:24;27.00;;;15.03;;
23258;SDS011;11798;51.528;7.240;2022-11-20T13:00:14;21.87;;;13.30;;
23258;SDS011;11798;51.528;7.240;2022-11-20T13:08:37;21.13;;;13.97;;
23258;SDS011;11798;51.528;7.240;2022-11-20T13:16:10;22.73;;;15.50;;
23258;SDS011;11798;51.528;7.240;2022-11-20T13:18:42;23.33;;;14.70;;
23258;SDS011;11798;51.528;7.240;2022-11-20T13:21:52;23.50;;;14.57;;
23258;SDS011;11798;51.528;7.240;2022-11-20T13:26:32;24.93;;;15.23;;
23258;SDS011;11798;51.528;7.240;2022-11-20T13:29:00;24.23;;;14.87;;
23258;SDS011;11798;51.528;7.240;2022-11-20T13:31:34;22.47;;;14.63;;
23258;SDS011;11798;51.528;7.240;2022-11-20T13:34:03;24.00;;;14.90;;
23258;SDS011;11798;51.528;7.240;2022-11-20T13:36:30;23.17;;;14.57;;
23258;SDS011;11798;51.528;7.240;2022-11-20T13:38:57;22.77;;;14.20;;
23258;SDS011;11798;51.528;7.240;2022-11-20T13:46:49;24.63;;;14.83;;
23258;SDS011;11798;51.528;7.240;2022-11-20T13:49:29;25.17;;;15.77;;
23258;SDS011;11798;51.528;7.240;2022-11-20T14:01:08;25.10;;;15.23;;
23258;SDS011;11798;51.528;7.240;2022-11-20T14:03:35;24.63;;;15.80;;
23258;SDS011;11798;51.528;7.240;2022-11-20T14:06:02;24.83;;;15.43;;
23258;SDS011;11798;51.528;7.240;2022-11-20T14:08:41;22.17;;;13.97;;
23258;SDS011;11798;51.528;7.240;2022-11-20T14:11:15;21.73;;;15.00;;
23258;SDS011;11798;51.528;7.240;2022-11-20T14:14:02;22.13;;;14.70;;
23258;SDS011;11798;51.528;7.240;2022-11-20T14:16:31;22.93;;;14.80;;
23258;SDS011;11798;51.528;7.240;2022-11-20T14:19:08;21.03;;;14.33;;
23258;SDS011;11798;51.528;7.240;2022-11-20T14:21:48;23.60;;;15.23;;
23258;SDS011;11798;51.528;7.240;2022-11-20T14:24:19;24.43;;;15.33;;
23258;SDS011;11798;51.528;7.240;2022-11-20T14:26:47;25.10;;;15.63;;
23258;SDS011;11798;51.528;7.240;2022-11-20T14:31:40;23.07;;;15.50;;
23258;SDS011;11798;51.528;7.240;2022-11-20T14:34:18;23.47;;;16.00;;
23258;SDS011;11798;51.528;7.240;2022-11-20T14:36:53;26.80;;;16.60;;
23258;SDS011;11798;51.528;7.240;2022-11-20T14:39:25;26.73;;;17.40;;
23258;SDS011;11798;51.528;7.240;2022-11-20T14:42:03;27.70;;;17.53;;
23258;SDS011;11798;51.528;7.240;2022-11-20T14:44:43;23.87;;;15.53;;
23258;SDS011;11798;51.528;7.240;2022-11-20T14:47:10;24.60;;;15.67;;
23258;SDS011;11798;51.528;7.240;2022-11-20T14:49:37;28.03;;;16.63;;
23258;SDS011;11798;51.528;7.240;2022-11-20T14:52:15;24.77;;;15.37;;
23258;SDS011;11798;51.528;7.240;2022-11-20T14:54:43;25.63;;;16.23;;
23258;SDS011;11798;51.528;7.240;2022-11-20T14:57:19;27.40;;;16.13;;
23258;SDS011;11798;51.528;7.240;2022-11-20T14:59:47;28.97;;;18.30;;
23258;SDS011;11798;51.528;7.240;2022-11-20T15:02:13;27.83;;;17.40;;
23258;SDS011;11798;51.528;7.240;2022-11-20T15:04:45;28.97;;;17.13;;
23258;SDS011;11798;51.528;7.240;2022-11-20T15:07:11;28.63;;;16.97;;
23258;SDS011;11798;51.528;7.240;2022-11-20T15:09:47;35.93;;;20.47;;
23258;SDS011;11798;51.528;7.240;2022-11-20T15:12:23;28.27;;;18.93;;
23258;SDS011;11798;51.528;7.240;2022-11-20T15:14:49;33.13;;;18.47;;
23258;SDS011;11798;51.528;7.240;2022-11-20T15:17:14;32.77;;;19.30;;
23258;SDS011;11798;51.528;7.240;2022-11-20T15:19:40;30.20;;;18.80;;
23258;SDS011;11798;51.528;7.240;2022-11-20T15:22:08;29.70;;;17.83;;
23258;SDS011;11798;51.528;7.240;2022-11-20T15:24:38;28.83;;;17.63;;
23258;SDS011;11798;51.528;7.240;2022-11-20T15:27:03;29.07;;;17.83;;
23258;SDS011;11798;51.528;7.240;2022-11-20T15:29:29;32.47;;;18.60;;
23258;SDS011;11798;51.528;7.240;2022-11-20T15:31:55;27.37;;;17.53;;
23258;SDS011;11798;51.528;7.240;2022-11-20T15:34:21;29.17;;;18.47;;
23258;SDS011;11798;51.528;7.240;2022-11-20T15:36:47;32.03;;;18.27;;
23258;SDS011;11798;51.528;7.240;2022-11-20T15:39:12;28.87;;;18.07;;
23258;SDS011;11798;51.528;7.240;2022-11-20T15:41:38;28.70;;;18.00;;
23258;SDS011;11798;51.528;7.240;2022-11-20T15:44:04;29.27;;;18.23;;
23258;SDS011;11798;51.528;7.240;2022-11-20T15:46:30;30.43;;;18.83;;
23258;SDS011;11798;51.528;7.240;2022-11-20T15:49:02;34.67;;;20.23;;
23258;SDS011;11798;51.528;7.240;2022-11-20T15:51:31;34.20;;;20.20;;
23258;SDS011;11798;51.528;7.240;2022-11-20T15:54:12;35.53;;;21.67;;
23258;SDS011;11798;51.528;7.240;2022-11-20T15:56:41;34.63;;;21.60;;
23258;SDS011;11798;51.528;7.240;2022-11-20T15:59:06;34.83;;;19.87;;
23258;SDS011;11798;51.528;7.240;2022-11-20T16:01:32;32.70;;;19.23;;
23258;SDS011;11798;51.528;7.240;2022-11-20T16:03:58;32.43;;;19.03;;
23258;SDS011;11798;51.528;7.240;2022-11-20T16:06:24;34.13;;;19.40;;
23258;SDS011;11798;51.528;7.240;2022-11-20T16:08:50;31.30;;;18.27;;
23258;SDS011;11798;51.528;7.240;2022-11-20T16:11:16;31.43;;;19.07;;
23258;SDS011;11798;51.528;7.240;2022-11-20T16:13:43;36.17;;;20.73;;
23258;SDS011;11798;51.528;7.240;2022-11-20T16:16:28;35.70;;;20.27;;
23258;SDS011;11798;51.528;7.240;2022-11-20T16:18:59;38.17;;;19.87;;
23258;SDS011;11798;51.528;7.240;2022-11-20T16:21:25;35.13;;;20.50;;
23258;SDS011;11798;51.528;7.240;2022-11-20T16:23:58;36.93;;;21.53;;
23258;SDS011;11798;51.528;7.240;2022-11-20T16:26:24;39.33;;;21.87;;